Terminal Aerodrome Forecast
Issued by NWS Twin Cities, MN

Home | Current Version | Previous Version | Graphics & Text | Print | Product List | Glossary On
Versions: 1 2 3 4 5 6 7 8 9 10 11 12 13 14 15 16 17 18 19 20 21 22 23 24 25 26 27 28 29
000
FTUS43 KMPX 211728 CCA
TAFMSP
TAF COR
KMSP 211728Z 2118/2224 13013G20KT P6SM SCT020
      TEMPO 2118/2119 BKN019
     FM212200 13012G20KT P6SM BKN035
     FM220200 16012KT P6SM SCT050
     FM220400 15010KT P6SM BKN050 OVC150 WS020/20045KT
     FM221500 17013G20KT P6SM BKN150=

USA.gov is the U.S. government's official web portal to all federal, state and local government web resources and services.